sensor_id;sensor_type;location;lat;lon;timestamp;pressure;altitude;pressure_sealevel;temperature;humidity
56330;BME280;42236;48.058;10.632;2023-12-07T00:00:26;94896.59;;;0.09;100.00
56330;BME280;42236;48.058;10.632;2023-12-07T00:03:11;94897.41;;;0.04;100.00
56330;BME280;42236;48.058;10.632;2023-12-07T00:05:57;94902.97;;;-0.03;100.00
56330;BME280;42236;48.058;10.632;2023-12-07T00:08:43;94904.59;;;-0.07;100.00
56330;BME280;42236;48.058;10.632;2023-12-07T00:11:29;94903.78;;;-0.12;100.00
56330;BME280;42236;48.058;10.632;2023-12-07T00:14:15;94903.00;;;-0.18;100.00
56330;BME280;42236;48.058;10.632;2023-12-07T00:17:00;94901.41;;;-0.24;100.00
56330;BME280;42236;48.058;10.632;2023-12-07T00:19:46;94904.56;;;-0.27;100.00
56330;BME280;42236;48.058;10.632;2023-12-07T00:22:32;94907.75;;;-0.30;100.00
56330;BME280;42236;48.058;10.632;2023-12-07T00:25:18;94898.50;;;-0.33;100.00
56330;BME280;42236;48.058;10.632;2023-12-07T00:28:03;94903.00;;;-0.33;100.00
56330;BME280;42236;48.058;10.632;2023-12-07T00:30:50;94908.81;;;-0.36;100.00
56330;BME280;42236;48.058;10.632;2023-12-07T00:33:36;94902.72;;;-0.42;100.00
56330;BME280;42236;48.058;10.632;2023-12-07T00:36:22;94903.78;;;-0.48;100.00
56330;BME280;42236;48.058;10.632;2023-12-07T00:39:07;94907.22;;;-0.53;100.00
56330;BME280;42236;48.058;10.632;2023-12-07T00:41:54;94912.53;;;-0.58;100.00
56330;BME280;42236;48.058;10.632;2023-12-07T00:44:40;94915.16;;;-0.63;100.00
56330;BME280;42236;48.058;10.632;2023-12-07T00:47:26;94924.41;;;-0.71;100.00
56330;BME280;42236;48.058;10.632;2023-12-07T00:50:12;94925.72;;;-0.78;100.00
56330;BME280;42236;48.058;10.632;2023-12-07T00:52:59;94923.84;;;-0.88;100.00
56330;BME280;42236;48.058;10.632;2023-12-07T00:55:45;94924.91;;;-0.94;100.00
56330;BME280;42236;48.058;10.632;2023-12-07T00:58:30;94931.50;;;-0.97;100.00
56330;BME280;42236;48.058;10.632;2023-12-07T01:01:16;94933.34;;;-0.97;100.00
56330;BME280;42236;48.058;10.632;2023-12-07T01:04:02;94935.72;;;-1.01;100.00
56330;BME280;42236;48.058;10.632;2023-12-07T01:06:47;94932.53;;;-1.03;100.00
56330;BME280;42236;48.058;10.632;2023-12-07T01:09:33;94940.25;;;-1.01;100.00
56330;BME280;42236;48.058;10.632;2023-12-07T01:12:22;94940.72;;;-1.04;100.00
56330;BME280;42236;48.058;10.632;2023-12-07T01:15:08;94948.97;;;-1.06;100.00
56330;BME280;42236;48.058;10.632;2023-12-07T01:17:54;94944.44;;;-1.05;100.00
56330;BME280;42236;48.058;10.632;2023-12-07T01:20:39;94944.16;;;-1.04;100.00
56330;BME280;42236;48.058;10.632;2023-12-07T01:23:25;94952.41;;;-1.00;100.00
56330;BME280;42236;48.058;10.632;2023-12-07T01:26:11;94953.19;;;-1.00;100.00
56330;BME280;42236;48.058;10.632;2023-12-07T01:28:57;94952.66;;;-0.97;100.00
56330;BME280;42236;48.058;10.632;2023-12-07T01:31:45;94955.59;;;-0.98;100.00
56330;BME280;42236;48.058;10.632;2023-12-07T01:34:31;94955.31;;;-1.02;100.00
56330;BME280;42236;48.058;10.632;2023-12-07T01:37:18;94961.38;;;-1.07;100.00
56330;BME280;42236;48.058;10.632;2023-12-07T01:40:04;94967.47;;;-1.11;100.00
56330;BME280;42236;48.058;10.632;2023-12-07T01:42:55;94965.84;;;-1.12;100.00
56330;BME280;42236;48.058;10.632;2023-12-07T01:45:41;94966.94;;;-1.13;100.00
56330;BME280;42236;48.058;10.632;2023-12-07T01:48:28;94968.75;;;-1.14;100.00
56330;BME280;42236;48.058;10.632;2023-12-07T01:51:14;94974.88;;;-1.13;100.00
56330;BME280;42236;48.058;10.632;2023-12-07T01:54:01;94981.75;;;-1.12;100.00
56330;BME280;42236;48.058;10.632;2023-12-07T01:56:47;94978.56;;;-1.14;100.00
56330;BME280;42236;48.058;10.632;2023-12-07T01:59:33;94982.25;;;-1.15;100.00
56330;BME280;42236;48.058;10.632;2023-12-07T02:02:19;94989.13;;;-1.19;100.00
56330;BME280;42236;48.058;10.632;2023-12-07T02:05:05;94991.75;;;-1.24;100.00
56330;BME280;42236;48.058;10.632;2023-12-07T02:07:52;94989.63;;;-1.27;100.00
56330;BME280;42236;48.058;10.632;2023-12-07T02:10:41;94974.78;;;-1.29;100.00
56330;BME280;42236;48.058;10.632;2023-12-07T02:13:30;94984.81;;;-1.31;100.00
56330;BME280;42236;48.058;10.632;2023-12-07T02:16:23;94988.78;;;-1.33;100.00
56330;BME280;42236;48.058;10.632;2023-12-07T02:22:07;94984.22;;;-1.43;100.00
56330;BME280;42236;48.058;10.632;2023-12-07T02:25:07;94988.19;;;-1.45;100.00
56330;BME280;42236;48.058;10.632;2023-12-07T02:27:55;94986.06;;;-1.48;100.00
56330;BME280;42236;48.058;10.632;2023-12-07T02:30:41;94987.34;;;-1.56;100.00
56330;BME280;42236;48.058;10.632;2023-12-07T02:33:29;94982.22;;;-1.68;100.00
56330;BME280;42236;48.058;10.632;2023-12-07T02:36:19;94990.41;;;-1.69;100.00
56330;BME280;42236;48.058;10.632;2023-12-07T02:39:06;94988.81;;;-1.70;100.00
56330;BME280;42236;48.058;10.632;2023-12-07T02:41:55;94978.50;;;-1.72;100.00
56330;BME280;42236;48.058;10.632;2023-12-07T02:44:42;94975.31;;;-1.74;100.00
56330;BME280;42236;48.058;10.632;2023-12-07T02:47:28;94987.19;;;-1.77;100.00
56330;BME280;42236;48.058;10.632;2023-12-07T02:50:14;94986.13;;;-1.81;100.00
56330;BME280;42236;48.058;10.632;2023-12-07T02:53:00;94979.72;;;-1.85;100.00
56330;BME280;42236;48.058;10.632;2023-12-07T02:55:46;94982.84;;;-1.93;100.00
56330;BME280;42236;48.058;10.632;2023-12-07T02:58:32;94982.28;;;-2.00;100.00
56330;BME280;42236;48.058;10.632;2023-12-07T03:01:17;94994.63;;;-2.06;100.00
56330;BME280;42236;48.058;10.632;2023-12-07T03:04:04;94990.91;;;-2.10;100.00
56330;BME280;42236;48.058;10.632;2023-12-07T03:06:49;94993.06;;;-2.07;100.00
56330;BME280;42236;48.058;10.632;2023-12-07T03:09:35;94995.50;;;-2.00;100.00
56330;BME280;42236;48.058;10.632;2023-12-07T03:12:21;94994.94;;;-2.02;100.00
56330;BME280;42236;48.058;10.632;2023-12-07T03:15:08;94997.03;;;-2.04;100.00
56330;BME280;42236;48.058;10.632;2023-12-07T03:17:55;95000.44;;;-2.09;100.00
56330;BME280;42236;48.058;10.632;2023-12-07T03:20:41;95003.22;;;-2.21;100.00
56330;BME280;42236;48.058;10.632;2023-12-07T03:23:27;95008.44;;;-2.31;100.00
56330;BME280;42236;48.058;10.632;2023-12-07T03:26:13;95004.34;;;-2.44;100.00
56330;BME280;42236;48.058;10.632;2023-12-07T03:28:59;95001.84;;;-2.55;100.00
56330;BME280;42236;48.058;10.632;2023-12-07T03:31:44;95011.03;;;-2.63;100.00
56330;BME280;42236;48.058;10.632;2023-12-07T03:34:30;95012.31;;;-2.66;100.00
56330;BME280;42236;48.058;10.632;2023-12-07T03:37:16;95005.13;;;-2.70;100.00
56330;BME280;42236;48.058;10.632;2023-12-07T03:40:01;95003.25;;;-2.75;100.00
56330;BME280;42236;48.058;10.632;2023-12-07T03:42:49;95007.41;;;-2.79;100.00
56330;BME280;42236;48.058;10.632;2023-12-07T03:45:35;95004.47;;;-2.83;100.00
56330;BME280;42236;48.058;10.632;2023-12-07T03:48:21;95008.31;;;-2.90;100.00
56330;BME280;42236;48.058;10.632;2023-12-07T03:51:07;95012.56;;;-2.89;100.00
56330;BME280;42236;48.058;10.632;2023-12-07T03:53:52;95015.69;;;-2.92;100.00
56330;BME280;42236;48.058;10.632;2023-12-07T03:56:38;95017.81;;;-2.94;100.00
56330;BME280;42236;48.058;10.632;2023-12-07T03:59:26;95010.63;;;-2.99;100.00
56330;BME280;42236;48.058;10.632;2023-12-07T04:02:11;95012.94;;;-3.03;100.00
56330;BME280;42236;48.058;10.632;2023-12-07T04:04:57;95015.28;;;-3.06;100.00
56330;BME280;42236;48.058;10.632;2023-12-07T04:07:47;95013.44;;;-3.06;100.00
56330;BME280;42236;48.058;10.632;2023-12-07T04:10:32;95008.59;;;-3.14;100.00
56330;BME280;42236;48.058;10.632;2023-12-07T04:13:18;95016.41;;;-3.19;100.00
56330;BME280;42236;48.058;10.632;2023-12-07T04:16:04;95016.41;;;-3.19;100.00
56330;BME280;42236;48.058;10.632;2023-12-07T04:18:51;95015.88;;;-3.21;100.00
56330;BME280;42236;48.058;10.632;2023-12-07T04:21:37;95017.41;;;-3.25;100.00
56330;BME280;42236;48.058;10.632;2023-12-07T04:24:23;95019.44;;;-3.32;100.00
56330;BME280;42236;48.058;10.632;2023-12-07T04:27:08;95015.66;;;-3.36;100.00
56330;BME280;42236;48.058;10.632;2023-12-07T04:29:54;95016.00;;;-3.33;100.00
56330;BME280;42236;48.058;10.632;2023-12-07T04:32:40;95023.91;;;-3.33;100.00
56330;BME280;42236;48.058;10.632;2023-12-07T04:35:26;95022.06;;;-3.32;100.00
56330;BME280;42236;48.058;10.632;2023-12-07T04:38:12;95022.63;;;-3.30;100.00
56330;BME280;42236;48.058;10.632;2023-12-07T04:40:58;95017.34;;;-3.30;100.00
56330;BME280;42236;48.058;10.632;2023-12-07T04:43:43;95021.81;;;-3.31;100.00
56330;BME280;42236;48.058;10.632;2023-12-07T04:46:29;95016.22;;;-3.34;100.00
56330;BME280;42236;48.058;10.632;2023-12-07T04:49:15;95023.13;;;-3.33;100.00
56330;BME280;42236;48.058;10.632;2023-12-07T04:52:00;95026.28;;;-3.31;100.00
56330;BME280;42236;48.058;10.632;2023-12-07T04:54:46;95015.44;;;-3.35;100.00
56330;BME280;42236;48.058;10.632;2023-12-07T04:57:33;95020.94;;;-3.36;100.00
56330;BME280;42236;48.058;10.632;2023-12-07T05:00:19;95017.22;;;-3.40;100.00
56330;BME280;42236;48.058;10.632;2023-12-07T05:03:05;95011.63;;;-3.44;100.00
56330;BME280;42236;48.058;10.632;2023-12-07T05:05:51;95009.78;;;-3.44;100.00
56330;BME280;42236;48.058;10.632;2023-12-07T05:08:39;95016.66;;;-3.42;100.00
56330;BME280;42236;48.058;10.632;2023-12-07T05:11:24;95014.81;;;-3.42;100.00
56330;BME280;42236;48.058;10.632;2023-12-07T05:14:10;95019.84;;;-3.40;100.00
56330;BME280;42236;48.058;10.632;2023-12-07T05:16:56;95011.44;;;-3.37;100.00
56330;BME280;42236;48.058;10.632;2023-12-07T05:19:41;95013.03;;;-3.36;100.00
56330;BME280;42236;48.058;10.632;2023-12-07T05:22:27;95018.63;;;-3.33;100.00
56330;BME280;42236;48.058;10.632;2023-12-07T05:25:13;95017.34;;;-3.30;100.00
56330;BME280;42236;48.058;10.632;2023-12-07T05:27:58;95014.16;;;-3.32;100.00
56330;BME280;42236;48.058;10.632;2023-12-07T05:30:44;95014.09;;;-3.37;100.00
56330;BME280;42236;48.058;10.632;2023-12-07T05:33:30;95014.25;;;-3.44;100.00
56330;BME280;42236;48.058;10.632;2023-12-07T05:36:16;95017.69;;;-3.44;100.00
56330;BME280;42236;48.058;10.632;2023-12-07T05:39:01;95024.56;;;-3.42;100.00
56330;BME280;42236;48.058;10.632;2023-12-07T05:41:47;95026.88;;;-3.46;100.00
56330;BME280;42236;48.058;10.632;2023-12-07T05:44:33;95028.88;;;-3.53;100.00
56330;BME280;42236;48.058;10.632;2023-12-07T05:47:20;95029.38;;;-3.56;100.00
56330;BME280;42236;48.058;10.632;2023-12-07T05:50:06;95026.91;;;-3.63;100.00
56330;BME280;42236;48.058;10.632;2023-12-07T05:52:52;95019.16;;;-3.70;100.00
56330;BME280;42236;48.058;10.632;2023-12-07T05:55:38;95019.16;;;-3.70;100.00
56330;BME280;42236;48.058;10.632;2023-12-07T05:58:24;95018.91;;;-3.68;100.00
56330;BME280;42236;48.058;10.632;2023-12-07T06:01:10;95023.69;;;-3.65;100.00
56330;BME280;42236;48.058;10.632;2023-12-07T06:03:55;95018.59;;;-3.55;100.00
56330;BME280;42236;48.058;10.632;2023-12-07T06:06:41;95016.59;;;-3.48;100.00
56330;BME280;42236;48.058;10.632;2023-12-07T06:09:27;95015.59;;;-3.41;100.00
56330;BME280;42236;48.058;10.632;2023-12-07T06:12:12;95011.38;;;-3.42;100.00
56330;BME280;42236;48.058;10.632;2023-12-07T06:14:58;95012.41;;;-3.44;100.00
56330;BME280;42236;48.058;10.632;2023-12-07T06:17:44;95013.94;;;-3.48;100.00
56330;BME280;42236;48.058;10.632;2023-12-07T06:20:30;95026.31;;;-3.48;100.00
56330;BME280;42236;48.058;10.632;2023-12-07T06:23:15;95022.31;;;-3.51;100.00
56330;BME280;42236;48.058;10.632;2023-12-07T06:26:01;95018.53;;;-3.60;100.00
56330;BME280;42236;48.058;10.632;2023-12-07T06:28:47;95027.63;;;-3.68;100.00
56330;BME280;42236;48.058;10.632;2023-12-07T06:31:33;95024.13;;;-3.73;100.00
56330;BME280;42236;48.058;10.632;2023-12-07T06:34:19;95032.50;;;-3.76;100.00
56330;BME280;42236;48.058;10.632;2023-12-07T06:37:05;95033.53;;;-3.77;100.00
56330;BME280;42236;48.058;10.632;2023-12-07T06:39:51;95031.88;;;-3.83;100.00
56330;BME280;42236;48.058;10.632;2023-12-07T06:42:36;95040.56;;;-3.83;100.00
56330;BME280;42236;48.058;10.632;2023-12-07T06:45:22;95048.72;;;-3.84;100.00
56330;BME280;42236;48.058;10.632;2023-12-07T06:48:08;95043.63;;;-3.91;100.00
56330;BME280;42236;48.058;10.632;2023-12-07T06:50:53;95042.50;;;-3.95;100.00
56330;BME280;42236;48.058;10.632;2023-12-07T06:53:40;95030.13;;;-3.95;100.00
56330;BME280;42236;48.058;10.632;2023-12-07T06:56:26;95036.16;;;-3.94;100.00
56330;BME280;42236;48.058;10.632;2023-12-07T06:59:12;95042.16;;;-3.99;100.00
56330;BME280;42236;48.058;10.632;2023-12-07T07:01:57;95036.09;;;-3.99;100.00
56330;BME280;42236;48.058;10.632;2023-12-07T07:04:43;95035.16;;;-3.93;100.00
56330;BME280;42236;48.058;10.632;2023-12-07T07:07:29;95033.88;;;-3.91;100.00
56330;BME280;42236;48.058;10.632;2023-12-07T07:10:16;95037.06;;;-3.89;100.00
56330;BME280;42236;48.058;10.632;2023-12-07T07:13:03;95034.66;;;-3.90;100.00
56330;BME280;42236;48.058;10.632;2023-12-07T07:15:49;95037.53;;;-3.92;100.00
56330;BME280;42236;48.058;10.632;2023-12-07T07:18:38;95040.16;;;-3.92;100.00
56330;BME280;42236;48.058;10.632;2023-12-07T07:21:23;95044.97;;;-3.89;100.00
56330;BME280;42236;48.058;10.632;2023-12-07T07:24:09;95041.84;;;-3.86;100.00
56330;BME280;42236;48.058;10.632;2023-12-07T07:26:55;95038.88;;;-3.89;100.00
56330;BME280;42236;48.058;10.632;2023-12-07T07:29:40;95034.81;;;-3.97;100.00
56330;BME280;42236;48.058;10.632;2023-12-07T07:32:26;95040.81;;;-4.01;100.00
56330;BME280;42236;48.058;10.632;2023-12-07T07:35:12;95039.44;;;-4.04;100.00
56330;BME280;42236;48.058;10.632;2023-12-07T07:37:58;95044.00;;;-3.99;100.00
56330;BME280;42236;48.058;10.632;2023-12-07T07:40:44;95041.69;;;-3.96;100.00
56330;BME280;42236;48.058;10.632;2023-12-07T07:43:30;95037.44;;;-3.97;100.00
56330;BME280;42236;48.058;10.632;2023-12-07T07:46:16;95039.00;;;-4.01;100.00
56330;BME280;42236;48.058;10.632;2023-12-07T07:49:02;95032.44;;;-3.98;100.00
56330;BME280;42236;48.058;10.632;2023-12-07T07:51:49;95024.63;;;-3.93;100.00
56330;BME280;42236;48.058;10.632;2023-12-07T07:54:36;95025.19;;;-3.91;100.00
56330;BME280;42236;48.058;10.632;2023-12-07T07:57:22;95030.81;;;-3.82;100.00
56330;BME280;42236;48.058;10.632;2023-12-07T08:00:08;95032.50;;;-3.76;100.00
56330;BME280;42236;48.058;10.632;2023-12-07T08:02:55;95025.16;;;-3.74;100.00
56330;BME280;42236;48.058;10.632;2023-12-07T08:05:41;95020.84;;;-3.63;100.00
56330;BME280;42236;48.058;10.632;2023-12-07T08:08:27;95019.06;;;-3.58;100.00
56330;BME280;42236;48.058;10.632;2023-12-07T08:11:14;95018.34;;;-3.53;100.00
56330;BME280;42236;48.058;10.632;2023-12-07T08:14:00;95016.25;;;-3.51;100.00
56330;BME280;42236;48.058;10.632;2023-12-07T08:16:46;95012.84;;;-3.52;100.00
56330;BME280;42236;48.058;10.632;2023-12-07T08:19:32;95019.47;;;-3.49;100.00
56330;BME280;42236;48.058;10.632;2023-12-07T08:22:18;95020.88;;;-3.41;100.00
56330;BME280;42236;48.058;10.632;2023-12-07T08:25:04;95024.22;;;-3.29;100.00
56330;BME280;42236;48.058;10.632;2023-12-07T08:27:50;95026.91;;;-3.24;100.00
56330;BME280;42236;48.058;10.632;2023-12-07T08:30:36;95016.34;;;-3.24;100.00
56330;BME280;42236;48.058;10.632;2023-12-07T08:33:22;95023.31;;;-3.18;100.00
56330;BME280;42236;48.058;10.632;2023-12-07T08:36:08;95029.75;;;-3.09;100.00
56330;BME280;42236;48.058;10.632;2023-12-07T08:38:54;95020.91;;;-2.97;100.00
56330;BME280;42236;48.058;10.632;2023-12-07T08:41:39;95028.16;;;-2.88;100.00
56330;BME280;42236;48.058;10.632;2023-12-07T08:44:25;95025.34;;;-2.81;100.00
56330;BME280;42236;48.058;10.632;2023-12-07T08:47:11;95014.88;;;-2.71;100.00
56330;BME280;42236;48.058;10.632;2023-12-07T08:49:57;95013.41;;;-2.62;100.00
56330;BME280;42236;48.058;10.632;2023-12-07T08:52:42;95013.50;;;-2.51;100.00
56330;BME280;42236;48.058;10.632;2023-12-07T08:55:28;95017.59;;;-2.39;100.00
56330;BME280;42236;48.058;10.632;2023-12-07T08:58:15;95006.34;;;-2.29;100.00
56330;BME280;42236;48.058;10.632;2023-12-07T09:01:01;95011.72;;;-2.19;100.00
56330;BME280;42236;48.058;10.632;2023-12-07T09:03:46;95013.66;;;-2.09;100.00
56330;BME280;42236;48.058;10.632;2023-12-07T09:06:32;95012.38;;;-2.01;100.00
56330;BME280;42236;48.058;10.632;2023-12-07T09:09:19;95015.88;;;-1.96;100.00
56330;BME280;42236;48.058;10.632;2023-12-07T09:12:05;95023.91;;;-1.85;100.00
56330;BME280;42236;48.058;10.632;2023-12-07T09:14:51;95023.69;;;-1.79;100.00
56330;BME280;42236;48.058;10.632;2023-12-07T09:17:38;95014.72;;;-1.73;100.00
56330;BME280;42236;48.058;10.632;2023-12-07T09:20:24;95012.63;;;-1.70;100.00
56330;BME280;42236;48.058;10.632;2023-12-07T09:23:10;95009.47;;;-1.67;100.00
56330;BME280;42236;48.058;10.632;2023-12-07T09:25:56;95005.31;;;-1.58;100.00
56330;BME280;42236;48.058;10.632;2023-12-07T09:28:41;95012.25;;;-1.47;100.00
56330;BME280;42236;48.058;10.632;2023-12-07T09:31:27;95007.28;;;-1.38;100.00
56330;BME280;42236;48.058;10.632;2023-12-07T09:34:13;95011.28;;;-1.31;100.00
56330;BME280;42236;48.058;10.632;2023-12-07T09:37:07;95015.03;;;-1.21;100.00
56330;BME280;42236;48.058;10.632;2023-12-07T09:39:56;95013.50;;;-1.12;100.00
56330;BME280;42236;48.058;10.632;2023-12-07T09:42:43;95006.91;;;-1.04;100.00
56330;BME280;42236;48.058;10.632;2023-12-07T09:45:29;95002.47;;;-0.99;100.00
56330;BME280;42236;48.058;10.632;2023-12-07T09:48:16;95001.41;;;-0.93;100.00
56330;BME280;42236;48.058;10.632;2023-12-07T09:51:03;95002.75;;;-0.85;100.00
56330;BME280;42236;48.058;10.632;2023-12-07T09:53:52;94994.03;;;-0.80;100.00
56330;BME280;42236;48.058;10.632;2023-12-07T09:56:38;95001.50;;;-0.72;100.00
56330;BME280;42236;48.058;10.632;2023-12-07T09:59:24;95002.31;;;-0.67;100.00
56330;BME280;42236;48.058;10.632;2023-12-07T10:02:10;94996.22;;;-0.62;100.00
56330;BME280;42236;48.058;10.632;2023-12-07T10:05:09;94998.38;;;-0.54;100.00
56330;BME280;42236;48.058;10.632;2023-12-07T10:08:04;94992.03;;;-0.48;100.00
56330;BME280;42236;48.058;10.632;2023-12-07T10:11:10;94986.50;;;-0.41;100.00
56330;BME280;42236;48.058;10.632;2023-12-07T10:13:58;94989.41;;;-0.32;100.00
56330;BME280;42236;48.058;10.632;2023-12-07T10:16:53;94992.06;;;-0.27;100.00
56330;BME280;42236;48.058;10.632;2023-12-07T10:19:42;94988.91;;;-0.19;100.00
56330;BME280;42236;48.058;10.632;2023-12-07T10:22:28;94983.31;;;-0.12;100.00
56330;BME280;42236;48.058;10.632;2023-12-07T10:25:14;94976.44;;;-0.03;100.00
56330;BME280;42236;48.058;10.632;2023-12-07T10:28:00;94967.97;;;0.05;100.00
56330;BME280;42236;48.058;10.632;2023-12-07T10:30:46;94968.50;;;0.12;100.00
56330;BME280;42236;48.058;10.632;2023-12-07T10:33:32;94961.31;;;0.18;100.00
56330;BME280;42236;48.058;10.632;2023-12-07T10:36:17;94959.44;;;0.24;100.00
56330;BME280;42236;48.058;10.632;2023-12-07T10:39:03;94954.41;;;0.27;100.00
56330;BME280;42236;48.058;10.632;2023-12-07T10:42:10;94941.94;;;0.33;100.00
56330;BME280;42236;48.058;10.632;2023-12-07T10:45:04;94942.72;;;0.38;100.00
56330;BME280;42236;48.058;10.632;2023-12-07T10:47:53;94936.59;;;0.43;100.00
56330;BME280;42236;48.058;10.632;2023-12-07T10:50:57;94933.69;;;0.50;100.00
56330;BME280;42236;48.058;10.632;2023-12-07T10:53:50;94929.44;;;0.54;100.00
56330;BME280;42236;48.058;10.632;2023-12-07T10:56:48;94930.47;;;0.63;98.25
56330;BME280;42236;48.058;10.632;2023-12-07T11:02:57;94922.44;;;0.78;96.10
56330;BME280;42236;48.058;10.632;2023-12-07T11:05:50;94914.44;;;0.83;94.49
56330;BME280;42236;48.058;10.632;2023-12-07T11:08:43;94922.94;;;0.91;96.42
56330;BME280;42236;48.058;10.632;2023-12-07T11:11:51;94913.34;;;0.95;93.21
56330;BME280;42236;48.058;10.632;2023-12-07T11:14:39;94912.53;;;0.99;95.39
56330;BME280;42236;48.058;10.632;2023-12-07T11:17:35;94890.72;;;1.02;95.11
56330;BME280;42236;48.058;10.632;2023-12-07T11:20:55;94894.69;;;1.05;94.66
56330;BME280;42236;48.058;10.632;2023-12-07T11:23:41;94897.34;;;1.10;96.39
56330;BME280;42236;48.058;10.632;2023-12-07T11:30:02;94884.81;;;1.16;91.69
56330;BME280;42236;48.058;10.632;2023-12-07T11:32:48;94889.28;;;1.20;91.78
56330;BME280;42236;48.058;10.632;2023-12-07T11:36:03;94889.03;;;1.22;88.66
56330;BME280;42236;48.058;10.632;2023-12-07T11:42:06;94883.13;;;1.30;91.17
56330;BME280;42236;48.058;10.632;2023-12-07T11:44:53;94886.84;;;1.34;93.53
56330;BME280;42236;48.058;10.632;2023-12-07T11:47:39;94890.81;;;1.37;93.42
56330;BME280;42236;48.058;10.632;2023-12-07T11:50:25;94895.56;;;1.40;91.88
56330;BME280;42236;48.058;10.632;2023-12-07T11:53:22;94877.25;;;1.38;85.42
56330;BME280;42236;48.058;10.632;2023-12-07T11:56:09;94883.56;;;1.42;86.83
56330;BME280;42236;48.058;10.632;2023-12-07T11:59:08;94877.44;;;1.47;87.13
56330;BME280;42236;48.058;10.632;2023-12-07T12:02:04;94866.28;;;1.50;88.00
56330;BME280;42236;48.058;10.632;2023-12-07T12:04:50;94865.19;;;1.51;87.15
56330;BME280;42236;48.058;10.632;2023-12-07T12:07:36;94866.75;;;1.52;80.71
56330;BME280;42236;48.058;10.632;2023-12-07T12:10:31;94857.72;;;1.53;82.31
56330;BME280;42236;48.058;10.632;2023-12-07T12:13:17;94860.09;;;1.55;82.59
56330;BME280;42236;48.058;10.632;2023-12-07T12:16:04;94855.03;;;1.58;84.47
56330;BME280;42236;48.058;10.632;2023-12-07T12:18:50;94856.59;;;1.59;84.88
56330;BME280;42236;48.058;10.632;2023-12-07T12:21:37;94846.50;;;1.61;84.77
56330;BME280;42236;48.058;10.632;2023-12-07T12:24:26;94844.63;;;1.62;84.74
56330;BME280;42236;48.058;10.632;2023-12-07T12:27:13;94847.00;;;1.63;86.34
56330;BME280;42236;48.058;10.632;2023-12-07T12:29:59;94826.81;;;1.62;81.32
56330;BME280;42236;48.058;10.632;2023-12-07T12:32:46;94832.41;;;1.61;82.83
56330;BME280;42236;48.058;10.632;2023-12-07T12:35:32;94825.16;;;1.66;85.10
56330;BME280;42236;48.058;10.632;2023-12-07T12:38:18;94824.13;;;1.67;83.09
56330;BME280;42236;48.058;10.632;2023-12-07T12:41:04;94826.22;;;1.70;82.43
56330;BME280;42236;48.058;10.632;2023-12-07T12:43:52;94817.16;;;1.71;84.40
56330;BME280;42236;48.058;10.632;2023-12-07T12:46:38;94808.91;;;1.73;82.40
56330;BME280;42236;48.058;10.632;2023-12-07T12:49:39;94810.25;;;1.70;77.24
56330;BME280;42236;48.058;10.632;2023-12-07T12:52:26;94811.28;;;1.75;85.65
56330;BME280;42236;48.058;10.632;2023-12-07T12:55:14;94800.66;;;1.75;79.74
56330;BME280;42236;48.058;10.632;2023-12-07T12:58:00;94791.03;;;1.79;83.06
56330;BME280;42236;48.058;10.632;2023-12-07T13:00:47;94783.56;;;1.81;80.87
56330;BME280;42236;48.058;10.632;2023-12-07T13:03:33;94784.59;;;1.85;80.24
56330;BME280;42236;48.058;10.632;2023-12-07T13:06:19;94782.97;;;1.89;83.70
56330;BME280;42236;48.058;10.632;2023-12-07T13:09:04;94781.34;;;1.88;79.00
56330;BME280;42236;48.058;10.632;2023-12-07T13:11:53;94769.66;;;1.89;82.09
56330;BME280;42236;48.058;10.632;2023-12-07T13:14:39;94768.06;;;1.88;82.04
56330;BME280;42236;48.058;10.632;2023-12-07T13:17:29;94766.19;;;1.88;79.95
56330;BME280;42236;48.058;10.632;2023-12-07T13:20:15;94761.16;;;1.87;80.62
56330;BME280;42236;48.058;10.632;2023-12-07T13:23:00;94762.22;;;1.86;81.03
56330;BME280;42236;48.058;10.632;2023-12-07T13:25:46;94752.66;;;1.85;81.04
56330;BME280;42236;48.058;10.632;2023-12-07T13:28:33;94758.56;;;1.82;80.33
56330;BME280;42236;48.058;10.632;2023-12-07T13:31:18;94760.13;;;1.83;81.45
56330;BME280;42236;48.058;10.632;2023-12-07T13:34:04;94744.19;;;1.83;78.89
56330;BME280;42236;48.058;10.632;2023-12-07T13:36:50;94740.47;;;1.84;79.54
56330;BME280;42236;48.058;10.632;2023-12-07T13:39:36;94729.31;;;1.82;79.54
56330;BME280;42236;48.058;10.632;2023-12-07T13:42:22;94734.63;;;1.82;80.90
56330;BME280;42236;48.058;10.632;2023-12-07T13:45:08;94722.97;;;1.78;81.40
56330;BME280;42236;48.058;10.632;2023-12-07T13:47:54;94725.63;;;1.78;80.99
56330;BME280;42236;48.058;10.632;2023-12-07T13:50:39;94726.19;;;1.75;80.95
56330;BME280;42236;48.058;10.632;2023-12-07T13:53:25;94729.91;;;1.74;80.92
56330;BME280;42236;48.058;10.632;2023-12-07T13:56:11;94734.44;;;1.73;83.19
56330;BME280;42236;48.058;10.632;2023-12-07T13:58:57;94735.22;;;1.74;84.43
56330;BME280;42236;48.058;10.632;2023-12-07T14:01:43;94732.88;;;1.72;82.54
56330;BME280;42236;48.058;10.632;2023-12-07T14:04:31;94724.38;;;1.70;78.50
56330;BME280;42236;48.058;10.632;2023-12-07T14:07:19;94721.97;;;1.68;80.29
56330;BME280;42236;48.058;10.632;2023-12-07T14:10:06;94724.94;;;1.67;81.20
56330;BME280;42236;48.058;10.632;2023-12-07T14:12:53;94725.47;;;1.64;80.64
56330;BME280;42236;48.058;10.632;2023-12-07T14:15:39;94728.44;;;1.62;81.57
56330;BME280;42236;48.058;10.632;2023-12-07T14:18:34;94732.69;;;1.63;82.83
56330;BME280;42236;48.058;10.632;2023-12-07T14:21:20;94739.06;;;1.62;81.54
56330;BME280;42236;48.058;10.632;2023-12-07T14:24:08;94732.72;;;1.58;80.49
56330;BME280;42236;48.058;10.632;2023-12-07T14:26:54;94727.97;;;1.55;81.45
56330;BME280;42236;48.058;10.632;2023-12-07T14:29:40;94730.13;;;1.53;79.62
56330;BME280;42236;48.058;10.632;2023-12-07T14:32:26;94726.16;;;1.51;81.00
56330;BME280;42236;48.058;10.632;2023-12-07T14:35:12;94726.72;;;1.47;80.28
56330;BME280;42236;48.058;10.632;2023-12-07T14:37:58;94721.16;;;1.44;80.22
56330;BME280;42236;48.058;10.632;2023-12-07T14:40:49;94729.72;;;1.41;80.94